sensor_id;sensor_type;location;lat;lon;timestamp;temperature;humidity
21612;DHT22;47005;52.292;13.452;2023-04-25T00:02:12;11.70;88.30
21612;DHT22;47005;52.292;13.452;2023-04-25T00:04:38;11.70;88.50
21612;DHT22;47005;52.292;13.452;2023-04-25T00:07:04;11.70;88.30
21612;DHT22;47005;52.292;13.452;2023-04-25T00:09:30;11.70;88.60
21612;DHT22;47005;52.292;13.452;2023-04-25T00:11:55;11.60;88.30
21612;DHT22;47005;52.292;13.452;2023-04-25T00:14:21;11.60;88.40
21612;DHT22;47005;52.292;13.452;2023-04-25T00:16:48;11.60;88.20
21612;DHT22;47005;52.292;13.452;2023-04-25T00:19:13;11.60;88.00
21612;DHT22;47005;52.292;13.452;2023-04-25T00:21:39;11.60;88.40
21612;DHT22;47005;52.292;13.452;2023-04-25T00:24:08;11.60;88.50
21612;DHT22;47005;52.292;13.452;2023-04-25T00:26:35;11.50;88.60
21612;DHT22;47005;52.292;13.452;2023-04-25T00:29:01;11.50;89.00
21612;DHT22;47005;52.292;13.452;2023-04-25T00:31:27;11.40;89.10
21612;DHT22;47005;52.292;13.452;2023-04-25T00:33:54;11.40;89.00
21612;DHT22;47005;52.292;13.452;2023-04-25T00:36:20;11.50;89.00
21612;DHT22;47005;52.292;13.452;2023-04-25T00:38:46;11.40;88.50
21612;DHT22;47005;52.292;13.452;2023-04-25T00:41:12;11.40;88.90
21612;DHT22;47005;52.292;13.452;2023-04-25T00:43:38;11.40;88.80
21612;DHT22;47005;52.292;13.452;2023-04-25T00:46:05;11.40;88.90
21612;DHT22;47005;52.292;13.452;2023-04-25T00:48:30;11.40;89.10
21612;DHT22;47005;52.292;13.452;2023-04-25T00:50:57;11.30;89.50
21612;DHT22;47005;52.292;13.452;2023-04-25T00:53:25;11.30;90.00
21612;DHT22;47005;52.292;13.452;2023-04-25T00:55:51;11.20;89.50
21612;DHT22;47005;52.292;13.452;2023-04-25T00:58:18;11.30;89.30
21612;DHT22;47005;52.292;13.452;2023-04-25T01:00:45;11.30;89.30
21612;DHT22;47005;52.292;13.452;2023-04-25T01:03:12;11.30;89.10
21612;DHT22;47005;52.292;13.452;2023-04-25T01:05:40;11.30;89.40
21612;DHT22;47005;52.292;13.452;2023-04-25T01:08:07;11.30;89.30
21612;DHT22;47005;52.292;13.452;2023-04-25T01:10:32;11.30;89.50
21612;DHT22;47005;52.292;13.452;2023-04-25T01:12:58;11.30;89.20
21612;DHT22;47005;52.292;13.452;2023-04-25T01:15:24;11.30;89.10
21612;DHT22;47005;52.292;13.452;2023-04-25T01:17:49;11.30;89.10
21612;DHT22;47005;52.292;13.452;2023-04-25T01:20:15;11.30;89.00
21612;DHT22;47005;52.292;13.452;2023-04-25T01:22:41;11.30;89.00
21612;DHT22;47005;52.292;13.452;2023-04-25T01:25:07;11.30;89.00
21612;DHT22;47005;52.292;13.452;2023-04-25T01:27:34;11.30;88.70
21612;DHT22;47005;52.292;13.452;2023-04-25T01:30:01;11.30;88.70
21612;DHT22;47005;52.292;13.452;2023-04-25T01:32:27;11.30;88.90
21612;DHT22;47005;52.292;13.452;2023-04-25T01:34:52;11.30;89.00
21612;DHT22;47005;52.292;13.452;2023-04-25T01:37:18;11.30;88.70
21612;DHT22;47005;52.292;13.452;2023-04-25T01:39:44;11.30;88.50
21612;DHT22;47005;52.292;13.452;2023-04-25T01:42:12;11.30;88.30
21612;DHT22;47005;52.292;13.452;2023-04-25T01:44:38;11.30;88.30
21612;DHT22;47005;52.292;13.452;2023-04-25T01:47:04;11.30;88.30
21612;DHT22;47005;52.292;13.452;2023-04-25T01:49:29;11.30;88.30
21612;DHT22;47005;52.292;13.452;2023-04-25T01:51:55;11.30;88.70
21612;DHT22;47005;52.292;13.452;2023-04-25T01:54:21;11.20;88.70
21612;DHT22;47005;52.292;13.452;2023-04-25T01:56:50;11.10;88.50
21612;DHT22;47005;52.292;13.452;2023-04-25T01:59:17;11.10;88.70
21612;DHT22;47005;52.292;13.452;2023-04-25T02:01:43;11.10;88.90
21612;DHT22;47005;52.292;13.452;2023-04-25T02:04:09;11.00;89.00
21612;DHT22;47005;52.292;13.452;2023-04-25T02:06:35;11.10;88.90
21612;DHT22;47005;52.292;13.452;2023-04-25T02:09:00;11.00;89.30
21612;DHT22;47005;52.292;13.452;2023-04-25T02:11:26;11.00;89.00
21612;DHT22;47005;52.292;13.452;2023-04-25T02:13:51;11.00;89.20
21612;DHT22;47005;52.292;13.452;2023-04-25T02:16:17;11.00;88.90
21612;DHT22;47005;52.292;13.452;2023-04-25T02:18:44;11.00;88.80
21612;DHT22;47005;52.292;13.452;2023-04-25T02:21:10;11.00;88.80
21612;DHT22;47005;52.292;13.452;2023-04-25T02:23:37;11.00;88.90
21612;DHT22;47005;52.292;13.452;2023-04-25T02:26:03;11.00;88.80
21612;DHT22;47005;52.292;13.452;2023-04-25T02:28:29;11.00;88.80
21612;DHT22;47005;52.292;13.452;2023-04-25T02:30:55;11.00;89.00
21612;DHT22;47005;52.292;13.452;2023-04-25T02:33:21;11.00;88.80
21612;DHT22;47005;52.292;13.452;2023-04-25T02:35:47;11.00;89.00
21612;DHT22;47005;52.292;13.452;2023-04-25T02:38:12;11.00;89.70
21612;DHT22;47005;52.292;13.452;2023-04-25T02:40:38;11.00;88.60
21612;DHT22;47005;52.292;13.452;2023-04-25T02:43:03;10.90;88.70
21612;DHT22;47005;52.292;13.452;2023-04-25T02:45:29;11.00;88.70
21612;DHT22;47005;52.292;13.452;2023-04-25T02:47:55;10.90;89.10
21612;DHT22;47005;52.292;13.452;2023-04-25T02:50:20;10.90;88.90
21612;DHT22;47005;52.292;13.452;2023-04-25T02:52:46;10.90;89.00
21612;DHT22;47005;52.292;13.452;2023-04-25T02:55:13;10.90;89.00
21612;DHT22;47005;52.292;13.452;2023-04-25T02:57:39;10.90;88.90
21612;DHT22;47005;52.292;13.452;2023-04-25T03:00:05;10.90;89.50
21612;DHT22;47005;52.292;13.452;2023-04-25T03:02:31;10.90;89.10
21612;DHT22;47005;52.292;13.452;2023-04-25T03:04:56;10.90;90.00
21612;DHT22;47005;52.292;13.452;2023-04-25T03:07:22;10.90;89.20
21612;DHT22;47005;52.292;13.452;2023-04-25T03:09:48;10.90;89.30
21612;DHT22;47005;52.292;13.452;2023-04-25T03:12:13;10.80;89.20
21612;DHT22;47005;52.292;13.452;2023-04-25T03:14:39;10.80;88.80
21612;DHT22;47005;52.292;13.452;2023-04-25T03:17:05;10.80;89.20
21612;DHT22;47005;52.292;13.452;2023-04-25T03:19:31;10.90;89.40
21612;DHT22;47005;52.292;13.452;2023-04-25T03:21:56;10.90;89.70
21612;DHT22;47005;52.292;13.452;2023-04-25T03:24:22;10.80;89.80
21612;DHT22;47005;52.292;13.452;2023-04-25T03:26:48;10.90;89.50
21612;DHT22;47005;52.292;13.452;2023-04-25T03:29:13;10.90;89.50
21612;DHT22;47005;52.292;13.452;2023-04-25T03:31:39;10.80;89.40
21612;DHT22;47005;52.292;13.452;2023-04-25T03:34:05;10.90;89.50
21612;DHT22;47005;52.292;13.452;2023-04-25T03:36:30;10.80;89.60
21612;DHT22;47005;52.292;13.452;2023-04-25T03:38:59;10.80;89.60
21612;DHT22;47005;52.292;13.452;2023-04-25T03:41:25;10.80;89.80
21612;DHT22;47005;52.292;13.452;2023-04-25T03:43:50;10.80;89.90
21612;DHT22;47005;52.292;13.452;2023-04-25T03:46:16;10.80;90.00
21612;DHT22;47005;52.292;13.452;2023-04-25T03:48:41;10.80;90.10
21612;DHT22;47005;52.292;13.452;2023-04-25T03:51:07;10.70;90.00
21612;DHT22;47005;52.292;13.452;2023-04-25T03:53:35;10.70;90.10
21612;DHT22;47005;52.292;13.452;2023-04-25T03:56:01;10.70;90.20
21612;DHT22;47005;52.292;13.452;2023-04-25T03:58:27;10.70;90.10
21612;DHT22;47005;52.292;13.452;2023-04-25T04:00:52;10.70;90.10
21612;DHT22;47005;52.292;13.452;2023-04-25T04:03:18;10.70;90.10
21612;DHT22;47005;52.292;13.452;2023-04-25T04:05:44;10.70;90.50
21612;DHT22;47005;52.292;13.452;2023-04-25T04:08:10;10.70;90.20
21612;DHT22;47005;52.292;13.452;2023-04-25T04:10:36;10.70;90.00
21612;DHT22;47005;52.292;13.452;2023-04-25T04:13:01;10.70;90.20
21612;DHT22;47005;52.292;13.452;2023-04-25T04:15:27;10.70;90.10
21612;DHT22;47005;52.292;13.452;2023-04-25T04:17:53;10.70;90.20
21612;DHT22;47005;52.292;13.452;2023-04-25T04:20:19;10.70;90.20
21612;DHT22;47005;52.292;13.452;2023-04-25T04:22:45;10.70;90.40
21612;DHT22;47005;52.292;13.452;2023-04-25T04:25:10;10.70;90.30
21612;DHT22;47005;52.292;13.452;2023-04-25T04:27:37;10.70;90.40
21612;DHT22;47005;52.292;13.452;2023-04-25T04:30:03;10.70;90.20
21612;DHT22;47005;52.292;13.452;2023-04-25T04:32:29;10.70;90.20
21612;DHT22;47005;52.292;13.452;2023-04-25T04:34:55;10.70;90.20
21612;DHT22;47005;52.292;13.452;2023-04-25T04:37:21;10.70;90.50
21612;DHT22;47005;52.292;13.452;2023-04-25T04:39:48;10.70;90.40
21612;DHT22;47005;52.292;13.452;2023-04-25T04:42:13;10.70;90.50
21612;DHT22;47005;52.292;13.452;2023-04-25T04:44:39;10.70;90.70
21612;DHT22;47005;52.292;13.452;2023-04-25T04:47:05;10.70;90.50
21612;DHT22;47005;52.292;13.452;2023-04-25T04:49:32;10.70;90.50
21612;DHT22;47005;52.292;13.452;2023-04-25T04:51:58;10.70;90.50
21612;DHT22;47005;52.292;13.452;2023-04-25T04:54:25;10.70;90.40
21612;DHT22;47005;52.292;13.452;2023-04-25T04:56:51;10.70;90.40
21612;DHT22;47005;52.292;13.452;2023-04-25T04:59:17;10.70;90.50
21612;DHT22;47005;52.292;13.452;2023-04-25T05:01:43;10.70;90.50
21612;DHT22;47005;52.292;13.452;2023-04-25T05:04:08;10.70;90.60
21612;DHT22;47005;52.292;13.452;2023-04-25T05:06:34;10.70;90.60
21612;DHT22;47005;52.292;13.452;2023-04-25T05:09:03;10.80;90.60
21612;DHT22;47005;52.292;13.452;2023-04-25T05:11:29;10.80;90.70
21612;DHT22;47005;52.292;13.452;2023-04-25T05:13:55;10.80;90.60
21612;DHT22;47005;52.292;13.452;2023-04-25T05:16:21;10.80;90.60
21612;DHT22;47005;52.292;13.452;2023-04-25T05:18:47;10.80;90.50
21612;DHT22;47005;52.292;13.452;2023-04-25T05:21:13;10.80;90.70
21612;DHT22;47005;52.292;13.452;2023-04-25T05:23:39;10.80;90.80
21612;DHT22;47005;52.292;13.452;2023-04-25T05:26:04;10.80;90.80
21612;DHT22;47005;52.292;13.452;2023-04-25T05:28:30;10.80;90.80
21612;DHT22;47005;52.292;13.452;2023-04-25T05:30:56;10.80;91.10
21612;DHT22;47005;52.292;13.452;2023-04-25T05:33:22;10.70;91.30
21612;DHT22;47005;52.292;13.452;2023-04-25T05:35:47;10.70;91.40
21612;DHT22;47005;52.292;13.452;2023-04-25T05:38:13;10.70;91.30
21612;DHT22;47005;52.292;13.452;2023-04-25T05:40:39;10.70;91.70
21612;DHT22;47005;52.292;13.452;2023-04-25T05:43:04;10.70;91.70
21612;DHT22;47005;52.292;13.452;2023-04-25T05:45:30;10.70;91.60
21612;DHT22;47005;52.292;13.452;2023-04-25T05:47:56;10.70;91.50
21612;DHT22;47005;52.292;13.452;2023-04-25T05:50:21;10.70;91.70
21612;DHT22;47005;52.292;13.452;2023-04-25T05:52:47;10.70;91.50
21612;DHT22;47005;52.292;13.452;2023-04-25T05:55:13;10.70;91.50
21612;DHT22;47005;52.292;13.452;2023-04-25T05:57:39;10.70;91.40
21612;DHT22;47005;52.292;13.452;2023-04-25T06:00:08;10.70;91.50
21612;DHT22;47005;52.292;13.452;2023-04-25T06:02:34;10.70;91.50
21612;DHT22;47005;52.292;13.452;2023-04-25T06:05:00;10.70;91.50
21612;DHT22;47005;52.292;13.452;2023-04-25T06:07:29;10.70;91.30
21612;DHT22;47005;52.292;13.452;2023-04-25T06:09:55;10.70;91.50
21612;DHT22;47005;52.292;13.452;2023-04-25T06:12:21;10.70;91.60
21612;DHT22;47005;52.292;13.452;2023-04-25T06:14:46;10.70;91.30
21612;DHT22;47005;52.292;13.452;2023-04-25T06:17:12;10.70;91.40
21612;DHT22;47005;52.292;13.452;2023-04-25T06:19:38;10.70;91.40
21612;DHT22;47005;52.292;13.452;2023-04-25T06:22:04;10.80;91.40
21612;DHT22;47005;52.292;13.452;2023-04-25T06:24:30;10.70;91.50
21612;DHT22;47005;52.292;13.452;2023-04-25T06:26:55;10.80;91.50
21612;DHT22;47005;52.292;13.452;2023-04-25T06:29:21;10.80;91.30
21612;DHT22;47005;52.292;13.452;2023-04-25T06:31:47;10.70;91.50
21612;DHT22;47005;52.292;13.452;2023-04-25T06:34:13;10.70;91.50
21612;DHT22;47005;52.292;13.452;2023-04-25T06:36:38;10.80;91.70
21612;DHT22;47005;52.292;13.452;2023-04-25T06:39:09;10.80;91.50
21612;DHT22;47005;52.292;13.452;2023-04-25T06:41:36;10.80;91.50
21612;DHT22;47005;52.292;13.452;2023-04-25T06:44:01;10.80;91.50
21612;DHT22;47005;52.292;13.452;2023-04-25T06:46:27;10.80;91.30
21612;DHT22;47005;52.292;13.452;2023-04-25T06:48:52;10.90;91.30
21612;DHT22;47005;52.292;13.452;2023-04-25T06:51:22;10.90;91.30
21612;DHT22;47005;52.292;13.452;2023-04-25T06:53:47;11.00;91.40
21612;DHT22;47005;52.292;13.452;2023-04-25T06:56:13;11.00;91.50
21612;DHT22;47005;52.292;13.452;2023-04-25T06:58:38;11.00;91.30
21612;DHT22;47005;52.292;13.452;2023-04-25T07:01:04;11.10;91.40
21612;DHT22;47005;52.292;13.452;2023-04-25T07:03:30;11.10;91.30
21612;DHT22;47005;52.292;13.452;2023-04-25T07:05:55;11.10;91.40
21612;DHT22;47005;52.292;13.452;2023-04-25T07:08:21;11.10;91.30
21612;DHT22;47005;52.292;13.452;2023-04-25T07:10:47;11.20;91.20
21612;DHT22;47005;52.292;13.452;2023-04-25T07:13:12;11.10;91.00
21612;DHT22;47005;52.292;13.452;2023-04-25T07:15:38;11.10;90.90
21612;DHT22;47005;52.292;13.452;2023-04-25T07:18:04;11.20;90.90
21612;DHT22;47005;52.292;13.452;2023-04-25T07:20:30;11.20;90.90
21612;DHT22;47005;52.292;13.452;2023-04-25T07:22:56;11.20;91.00
21612;DHT22;47005;52.292;13.452;2023-04-25T07:25:22;11.20;91.20
21612;DHT22;47005;52.292;13.452;2023-04-25T07:27:48;11.20;91.00
21612;DHT22;47005;52.292;13.452;2023-04-25T07:30:14;11.20;90.80
21612;DHT22;47005;52.292;13.452;2023-04-25T07:32:39;11.20;90.80
21612;DHT22;47005;52.292;13.452;2023-04-25T07:35:06;11.20;90.90
21612;DHT22;47005;52.292;13.452;2023-04-25T07:37:33;11.10;91.00
21612;DHT22;47005;52.292;13.452;2023-04-25T07:39:59;11.10;91.10
21612;DHT22;47005;52.292;13.452;2023-04-25T07:42:24;11.10;91.30
21612;DHT22;47005;52.292;13.452;2023-04-25T07:44:50;11.00;91.50
21612;DHT22;47005;52.292;13.452;2023-04-25T07:47:17;11.00;91.40
21612;DHT22;47005;52.292;13.452;2023-04-25T07:49:44;11.00;91.50
21612;DHT22;47005;52.292;13.452;2023-04-25T07:52:12;11.00;91.30
21612;DHT22;47005;52.292;13.452;2023-04-25T07:54:37;10.90;91.40
21612;DHT22;47005;52.292;13.452;2023-04-25T07:57:03;10.90;91.50
21612;DHT22;47005;52.292;13.452;2023-04-25T07:59:29;10.80;91.30
21612;DHT22;47005;52.292;13.452;2023-04-25T08:01:55;10.80;90.90
21612;DHT22;47005;52.292;13.452;2023-04-25T08:04:22;10.70;91.20
21612;DHT22;47005;52.292;13.452;2023-04-25T08:06:48;10.80;91.20
21612;DHT22;47005;52.292;13.452;2023-04-25T08:09:14;10.80;91.20
21612;DHT22;47005;52.292;13.452;2023-04-25T08:11:41;10.80;91.10
21612;DHT22;47005;52.292;13.452;2023-04-25T08:14:07;10.90;91.00
21612;DHT22;47005;52.292;13.452;2023-04-25T08:16:33;10.90;91.00
21612;DHT22;47005;52.292;13.452;2023-04-25T08:18:59;10.80;91.30
21612;DHT22;47005;52.292;13.452;2023-04-25T08:21:25;10.80;91.60
21612;DHT22;47005;52.292;13.452;2023-04-25T08:23:52;10.80;91.10
21612;DHT22;47005;52.292;13.452;2023-04-25T08:26:18;10.80;91.00
21612;DHT22;47005;52.292;13.452;2023-04-25T08:28:43;10.80;91.10
21612;DHT22;47005;52.292;13.452;2023-04-25T08:31:09;10.90;91.40
21612;DHT22;47005;52.292;13.452;2023-04-25T08:33:35;10.80;91.40
21612;DHT22;47005;52.292;13.452;2023-04-25T08:36:01;10.80;91.30
21612;DHT22;47005;52.292;13.452;2023-04-25T08:38:27;10.80;91.60
21612;DHT22;47005;52.292;13.452;2023-04-25T08:40:54;10.80;91.50
21612;DHT22;47005;52.292;13.452;2023-04-25T08:43:23;10.90;91.80
21612;DHT22;47005;52.292;13.452;2023-04-25T08:45:53;10.90;91.90
21612;DHT22;47005;52.292;13.452;2023-04-25T08:48:22;10.80;92.10
21612;DHT22;47005;52.292;13.452;2023-04-25T08:50:51;10.80;91.90
21612;DHT22;47005;52.292;13.452;2023-04-25T08:53:21;10.80;91.80
21612;DHT22;47005;52.292;13.452;2023-04-25T08:55:48;10.80;91.60
21612;DHT22;47005;52.292;13.452;2023-04-25T08:58:15;10.90;91.70
21612;DHT22;47005;52.292;13.452;2023-04-25T09:00:41;10.90;91.70
21612;DHT22;47005;52.292;13.452;2023-04-25T09:03:07;11.00;91.80
21612;DHT22;47005;52.292;13.452;2023-04-25T09:05:33;11.00;91.70
21612;DHT22;47005;52.292;13.452;2023-04-25T09:08:00;11.00;91.70
21612;DHT22;47005;52.292;13.452;2023-04-25T09:10:26;11.00;91.90
21612;DHT22;47005;52.292;13.452;2023-04-25T09:13:23;11.10;91.60
21612;DHT22;47005;52.292;13.452;2023-04-25T09:15:51;11.10;91.20
21612;DHT22;47005;52.292;13.452;2023-04-25T09:20:53;11.20;91.10
21612;DHT22;47005;52.292;13.452;2023-04-25T09:23:20;11.20;90.50
21612;DHT22;47005;52.292;13.452;2023-04-25T09:25:50;11.20;90.30
21612;DHT22;47005;52.292;13.452;2023-04-25T09:28:23;11.20;88.70
21612;DHT22;47005;52.292;13.452;2023-04-25T09:30:49;11.30;86.70
21612;DHT22;47005;52.292;13.452;2023-04-25T09:33:15;11.30;85.80
21612;DHT22;47005;52.292;13.452;2023-04-25T09:35:45;11.40;87.00
21612;DHT22;47005;52.292;13.452;2023-04-25T09:38:14;11.50;87.70
21612;DHT22;47005;52.292;13.452;2023-04-25T09:40:45;11.50;85.90
21612;DHT22;47005;52.292;13.452;2023-04-25T09:43:21;11.60;85.70
21612;DHT22;47005;52.292;13.452;2023-04-25T09:45:47;11.60;85.60
21612;DHT22;47005;52.292;13.452;2023-04-25T09:48:21;11.70;85.70
21612;DHT22;47005;52.292;13.452;2023-04-25T09:51:09;11.70;84.00
21612;DHT22;47005;52.292;13.452;2023-04-25T09:53:37;11.70;83.10
21612;DHT22;47005;52.292;13.452;2023-04-25T09:56:09;11.80;83.10
21612;DHT22;47005;52.292;13.452;2023-04-25T09:58:36;11.80;80.50
21612;DHT22;47005;52.292;13.452;2023-04-25T10:01:04;11.80;78.20
21612;DHT22;47005;52.292;13.452;2023-04-25T10:03:32;11.80;79.20
21612;DHT22;47005;52.292;13.452;2023-04-25T10:06:04;11.90;78.20
21612;DHT22;47005;52.292;13.452;2023-04-25T10:08:33;11.90;78.10
21612;DHT22;47005;52.292;13.452;2023-04-25T10:11:01;11.90;77.10
21612;DHT22;47005;52.292;13.452;2023-04-25T10:13:29;11.90;76.60
21612;DHT22;47005;52.292;13.452;2023-04-25T10:15:57;11.90;76.70
21612;DHT22;47005;52.292;13.452;2023-04-25T10:18:24;11.90;75.90
21612;DHT22;47005;52.292;13.452;2023-04-25T10:20:50;11.90;75.50
21612;DHT22;47005;52.292;13.452;2023-04-25T10:23:16;11.90;76.20
21612;DHT22;47005;52.292;13.452;2023-04-25T10:25:43;11.90;74.10
21612;DHT22;47005;52.292;13.452;2023-04-25T10:28:09;11.90;73.80
21612;DHT22;47005;52.292;13.452;2023-04-25T10:30:37;11.90;72.70
21612;DHT22;47005;52.292;13.452;2023-04-25T10:33:16;11.90;71.20
21612;DHT22;47005;52.292;13.452;2023-04-25T10:35:45;11.90;71.80
21612;DHT22;47005;52.292;13.452;2023-04-25T10:38:11;11.90;71.20
21612;DHT22;47005;52.292;13.452;2023-04-25T10:40:39;11.90;71.00
21612;DHT22;47005;52.292;13.452;2023-04-25T10:43:43;11.90;70.20
21612;DHT22;47005;52.292;13.452;2023-04-25T10:48:51;11.80;70.90
21612;DHT22;47005;52.292;13.452;2023-04-25T10:53:47;11.80;69.60
21612;DHT22;47005;52.292;13.452;2023-04-25T10:56:23;11.80;70.30
21612;DHT22;47005;52.292;13.452;2023-04-25T10:58:50;11.90;70.50
21612;DHT22;47005;52.292;13.452;2023-04-25T11:01:25;11.90;69.90
21612;DHT22;47005;52.292;13.452;2023-04-25T11:03:57;11.90;70.50
21612;DHT22;47005;52.292;13.452;2023-04-25T11:06:30;11.90;70.00
21612;DHT22;47005;52.292;13.452;2023-04-25T11:09:00;12.00;68.20
21612;DHT22;47005;52.292;13.452;2023-04-25T11:11:26;12.00;69.10
21612;DHT22;47005;52.292;13.452;2023-04-25T11:13:54;12.00;70.00
21612;DHT22;47005;52.292;13.452;2023-04-25T11:16:19;12.00;68.70
21612;DHT22;47005;52.292;13.452;2023-04-25T11:18:45;12.00;69.20
21612;DHT22;47005;52.292;13.452;2023-04-25T11:21:11;11.90;68.70
21612;DHT22;47005;52.292;13.452;2023-04-25T11:23:37;11.90;68.50
21612;DHT22;47005;52.292;13.452;2023-04-25T11:26:03;11.90;68.90
21612;DHT22;47005;52.292;13.452;2023-04-25T11:28:29;11.90;68.30
21612;DHT22;47005;52.292;13.452;2023-04-25T11:30:56;11.90;68.60
21612;DHT22;47005;52.292;13.452;2023-04-25T11:33:25;11.90;69.60
21612;DHT22;47005;52.292;13.452;2023-04-25T11:35:53;11.90;68.60
21612;DHT22;47005;52.292;13.452;2023-04-25T11:38:20;12.00;68.30
21612;DHT22;47005;52.292;13.452;2023-04-25T11:40:51;12.00;68.60
21612;DHT22;47005;52.292;13.452;2023-04-25T11:43:17;11.90;67.40
21612;DHT22;47005;52.292;13.452;2023-04-25T11:45:46;11.90;69.80
21612;DHT22;47005;52.292;13.452;2023-04-25T11:48:13;12.00;68.10
21612;DHT22;47005;52.292;13.452;2023-04-25T11:50:39;12.00;69.10
21612;DHT22;47005;52.292;13.452;2023-04-25T11:53:05;12.00;68.70
21612;DHT22;47005;52.292;13.452;2023-04-25T11:55:31;12.00;68.10
21612;DHT22;47005;52.292;13.452;2023-04-25T11:57:59;12.00;67.50
21612;DHT22;47005;52.292;13.452;2023-04-25T12:00:26;12.00;68.20
21612;DHT22;47005;52.292;13.452;2023-04-25T12:02:53;11.90;67.20
21612;DHT22;47005;52.292;13.452;2023-04-25T12:05:20;11.80;66.20
21612;DHT22;47005;52.292;13.452;2023-04-25T12:07:49;11.80;67.10
21612;DHT22;47005;52.292;13.452;2023-04-25T12:10:16;11.80;66.70
21612;DHT22;47005;52.292;13.452;2023-04-25T12:12:44;11.70;66.70
21612;DHT22;47005;52.292;13.452;2023-04-25T12:15:14;11.70;68.50
21612;DHT22;47005;52.292;13.452;2023-04-25T12:17:49;11.70;67.70
21612;DHT22;47005;52.292;13.452;2023-04-25T12:20:18;11.70;68.30
21612;DHT22;47005;52.292;13.452;2023-04-25T12:22:46;11.80;68.20
21612;DHT22;47005;52.292;13.452;2023-04-25T12:28:22;11.80;67.20
21612;DHT22;47005;52.292;13.452;2023-04-25T12:31:02;11.90;67.40
21612;DHT22;47005;52.292;13.452;2023-04-25T12:33:33;12.00;65.90
21612;DHT22;47005;52.292;13.452;2023-04-25T12:36:00;12.10;65.40
21612;DHT22;47005;52.292;13.452;2023-04-25T12:38:31;12.10;66.50
21612;DHT22;47005;52.292;13.452;2023-04-25T12:40:59;12.20;66.20
21612;DHT22;47005;52.292;13.452;2023-04-25T12:43:26;12.30;66.40
21612;DHT22;47005;52.292;13.452;2023-04-25T12:45:55;12.30;65.90
21612;DHT22;47005;52.292;13.452;2023-04-25T12:48:21;12.40;66.10
21612;DHT22;47005;52.292;13.452;2023-04-25T12:50:48;12.40;66.20
21612;DHT22;47005;52.292;13.452;2023-04-25T12:53:19;12.50;66.30
21612;DHT22;47005;52.292;13.452;2023-04-25T12:55:45;12.60;66.20
21612;DHT22;47005;52.292;13.452;2023-04-25T12:58:17;12.60;64.10
21612;DHT22;47005;52.292;13.452;2023-04-25T13:00:43;12.60;64.00
21612;DHT22;47005;52.292;13.452;2023-04-25T13:03:10;12.70;63.80
21612;DHT22;47005;52.292;13.452;2023-04-25T13:05:36;12.80;63.10
21612;DHT22;47005;52.292;13.452;2023-04-25T13:08:02;13.00;63.00
21612;DHT22;47005;52.292;13.452;2023-04-25T13:10:31;13.10;61.70
21612;DHT22;47005;52.292;13.452;2023-04-25T13:12:59;13.10;60.30
21612;DHT22;47005;52.292;13.452;2023-04-25T13:15:24;13.00;60.60
21612;DHT22;47005;52.292;13.452;2023-04-25T13:17:50;13.00;60.20
21612;DHT22;47005;52.292;13.452;2023-04-25T13:20:16;13.00;61.10
21612;DHT22;47005;52.292;13.452;2023-04-25T13:22:42;12.80;60.40
21612;DHT22;47005;52.292;13.452;2023-04-25T13:25:08;12.70;60.70
21612;DHT22;47005;52.292;13.452;2023-04-25T13:27:35;12.70;61.20
21612;DHT22;47005;52.292;13.452;2023-04-25T13:30:01;12.50;61.70
21612;DHT22;47005;52.292;13.452;2023-04-25T13:32:35;12.50;61.80
21612;DHT22;47005;52.292;13.452;2023-04-25T13:35:10;12.50;63.10
21612;DHT22;47005;52.292;13.452;2023-04-25T13:37:36;12.40;62.30
21612;DHT22;47005;52.292;13.452;2023-04-25T13:40:04;12.40;62.50
21612;DHT22;47005;52.292;13.452;2023-04-25T13:42:31;12.40;63.20
21612;DHT22;47005;52.292;13.452;2023-04-25T13:44:57;12.30;61.70
21612;DHT22;47005;52.292;13.452;2023-04-25T13:47:23;12.30;62.10
21612;DHT22;47005;52.292;13.452;2023-04-25T13:49:49;12.30;61.80
21612;DHT22;47005;52.292;13.452;2023-04-25T13:52:15;12.40;63.20
21612;DHT22;47005;52.292;13.452;2023-04-25T13:54:41;12.40;62.80
21612;DHT22;47005;52.292;13.452;2023-04-25T13:57:06;12.50;63.80
21612;DHT22;47005;52.292;13.452;2023-04-25T13:59:32;12.70;65.40
21612;DHT22;47005;52.292;13.452;2023-04-25T14:01:58;12.90;63.20
21612;DHT22;47005;52.292;13.452;2023-04-25T14:04:24;13.20;62.80
21612;DHT22;47005;52.292;13.452;2023-04-25T14:06:50;13.40;62.00
21612;DHT22;47005;52.292;13.452;2023-04-25T14:09:17;13.50;60.40
21612;DHT22;47005;52.292;13.452;2023-04-25T14:11:43;13.50;60.00
21612;DHT22;47005;52.292;13.452;2023-04-25T14:14:08;13.50;60.80
21612;DHT22;47005;52.292;13.452;2023-04-25T14:16:34;13.40;60.70
21612;DHT22;47005;52.292;13.452;2023-04-25T14:19:01;13.30;60.30
21612;DHT22;47005;52.292;13.452;2023-04-25T14:21:27;13.20;60.00
21612;DHT22;47005;52.292;13.452;2023-04-25T14:23:53;13.00;61.00
21612;DHT22;47005;52.292;13.452;2023-04-25T14:26:19;12.90;61.40
21612;DHT22;47005;52.292;13.452;2023-04-25T14:28:45;12.90;62.30
21612;DHT22;47005;52.292;13.452;2023-04-25T14:31:10;12.80;63.10
21612;DHT22;47005;52.292;13.452;2023-04-25T14:33:36;12.60;63.10
21612;DHT22;47005;52.292;13.452;2023-04-25T14:36:05;12.50;63.80
21612;DHT22;47005;52.292;13.452;2023-04-25T14:38:31;12.50;64.50
21612;DHT22;47005;52.292;13.452;2023-04-25T14:40:56;12.40;65.10
21612;DHT22;47005;52.292;13.452;2023-04-25T14:43:25;12.40;65.80
21612;DHT22;47005;52.292;13.452;2023-04-25T14:45:50;12.40;65.90
21612;DHT22;47005;52.292;13.452;2023-04-25T14:48:17;12.30;66.90
21612;DHT22;47005;52.292;13.452;2023-04-25T14:50:45;12.20;66.80
21612;DHT22;47005;52.292;13.452;2023-04-25T14:53:10;12.20;67.50
21612;DHT22;47005;52.292;13.452;2023-04-25T14:55:36;12.10;67.70
21612;DHT22;47005;52.292;13.452;2023-04-25T14:58:02;12.10;68.00
21612;DHT22;47005;52.292;13.452;2023-04-25T15:00:27;12.00;68.10
21612;DHT22;47005;52.292;13.452;2023-04-25T15:02:53;12.00;68.50
21612;DHT22;47005;52.292;13.452;2023-04-25T15:05:19;11.90;67.50
21612;DHT22;47005;52.292;13.452;2023-04-25T15:07:45;11.90;67.50
21612;DHT22;47005;52.292;13.452;2023-04-25T15:10:12;11.90;67.40
21612;DHT22;47005;52.292;13.452;2023-04-25T15:12:42;11.90;68.00
21612;DHT22;47005;52.292;13.452;2023-04-25T15:15:09;11.80;67.80
21612;DHT22;47005;52.292;13.452;2023-04-25T15:17:41;11.90;68.20
21612;DHT22;47005;52.292;13.452;2023-04-25T15:20:11;11.90;67.80
21612;DHT22;47005;52.292;13.452;2023-04-25T15:22:39;11.90;66.20
21612;DHT22;47005;52.292;13.452;2023-04-25T15:25:06;11.90;66.20